sensor_id;sensor_type;location;lat;lon;timestamp;temperature;humidity
5196;DHT22;2617;51.006;12.436;2022-11-10T00:00:27;10.30;99.90
5196;DHT22;2617;51.006;12.436;2022-11-10T00:05:29;10.20;99.90
5196;DHT22;2617;51.006;12.436;2022-11-10T00:10:30;10.20;99.90
5196;DHT22;2617;51.006;12.436;2022-11-10T00:15:32;10.10;99.90
5196;DHT22;2617;51.006;12.436;2022-11-10T00:20:40;9.90;99.90
5196;DHT22;2617;51.006;12.436;2022-11-10T00:25:42;9.90;99.90
5196;DHT22;2617;51.006;12.436;2022-11-10T00:30:44;9.70;99.90
5196;DHT22;2617;51.006;12.436;2022-11-10T00:35:46;9.70;99.90
5196;DHT22;2617;51.006;12.436;2022-11-10T00:40:48;9.60;99.90
5196;DHT22;2617;51.006;12.436;2022-11-10T00:45:49;9.60;99.90
5196;DHT22;2617;51.006;12.436;2022-11-10T00:50:51;9.60;99.90
5196;DHT22;2617;51.006;12.436;2022-11-10T00:55:53;9.50;99.90
5196;DHT22;2617;51.006;12.436;2022-11-10T01:01:03;9.50;99.90
5196;DHT22;2617;51.006;12.436;2022-11-10T01:06:06;9.40;99.90
5196;DHT22;2617;51.006;12.436;2022-11-10T01:11:08;9.40;99.90
5196;DHT22;2617;51.006;12.436;2022-11-10T01:16:11;9.40;99.90
5196;DHT22;2617;51.006;12.436;2022-11-10T01:21:11;9.40;99.90
5196;DHT22;2617;51.006;12.436;2022-11-10T01:26:13;9.40;99.90
5196;DHT22;2617;51.006;12.436;2022-11-10T01:31:16;9.40;99.90
5196;DHT22;2617;51.006;12.436;2022-11-10T01:36:16;9.40;99.90
5196;DHT22;2617;51.006;12.436;2022-11-10T01:41:18;9.40;99.90
5196;DHT22;2617;51.006;12.436;2022-11-10T01:46:19;9.40;99.90
5196;DHT22;2617;51.006;12.436;2022-11-10T01:56:43;9.30;99.90
5196;DHT22;2617;51.006;12.436;2022-11-10T02:01:44;9.30;99.90
5196;DHT22;2617;51.006;12.436;2022-11-10T02:06:45;9.20;99.90
5196;DHT22;2617;51.006;12.436;2022-11-10T02:11:47;9.10;99.90
5196;DHT22;2617;51.006;12.436;2022-11-10T02:16:48;8.90;99.90
5196;DHT22;2617;51.006;12.436;2022-11-10T02:21:50;8.80;99.90
5196;DHT22;2617;51.006;12.436;2022-11-10T02:26:52;8.70;99.90
5196;DHT22;2617;51.006;12.436;2022-11-10T02:31:54;8.50;99.90
5196;DHT22;2617;51.006;12.436;2022-11-10T02:36:55;8.50;99.90
5196;DHT22;2617;51.006;12.436;2022-11-10T02:41:57;8.40;99.90
5196;DHT22;2617;51.006;12.436;2022-11-10T02:46:59;8.40;99.90
5196;DHT22;2617;51.006;12.436;2022-11-10T02:52:01;8.30;99.90
5196;DHT22;2617;51.006;12.436;2022-11-10T02:57:03;8.30;99.90
5196;DHT22;2617;51.006;12.436;2022-11-10T03:02:05;8.20;99.90
5196;DHT22;2617;51.006;12.436;2022-11-10T03:07:07;8.10;99.90
5196;DHT22;2617;51.006;12.436;2022-11-10T03:12:09;8.10;99.90
5196;DHT22;2617;51.006;12.436;2022-11-10T03:17:12;8.10;99.90
5196;DHT22;2617;51.006;12.436;2022-11-10T03:22:13;8.00;99.90
5196;DHT22;2617;51.006;12.436;2022-11-10T03:27:15;8.00;99.90
5196;DHT22;2617;51.006;12.436;2022-11-10T03:32:17;8.00;99.90
5196;DHT22;2617;51.006;12.436;2022-11-10T03:37:18;7.90;99.90
5196;DHT22;2617;51.006;12.436;2022-11-10T03:42:20;7.80;99.90
5196;DHT22;2617;51.006;12.436;2022-11-10T03:47:22;7.70;99.90
5196;DHT22;2617;51.006;12.436;2022-11-10T03:52:24;7.70;99.90
5196;DHT22;2617;51.006;12.436;2022-11-10T03:57:25;7.60;99.90
5196;DHT22;2617;51.006;12.436;2022-11-10T04:02:28;7.60;99.90
5196;DHT22;2617;51.006;12.436;2022-11-10T04:07:30;7.50;99.90
5196;DHT22;2617;51.006;12.436;2022-11-10T04:12:37;7.60;99.90
5196;DHT22;2617;51.006;12.436;2022-11-10T04:17:48;7.60;99.90
5196;DHT22;2617;51.006;12.436;2022-11-10T04:22:50;7.60;99.90
5196;DHT22;2617;51.006;12.436;2022-11-10T04:27:57;7.50;99.90
5196;DHT22;2617;51.006;12.436;2022-11-10T04:32:59;7.50;99.90
5196;DHT22;2617;51.006;12.436;2022-11-10T04:38:00;7.40;99.90
5196;DHT22;2617;51.006;12.436;2022-11-10T04:43:02;7.40;99.90
5196;DHT22;2617;51.006;12.436;2022-11-10T04:48:04;7.40;99.90
5196;DHT22;2617;51.006;12.436;2022-11-10T04:53:07;7.30;99.90
5196;DHT22;2617;51.006;12.436;2022-11-10T04:58:08;7.30;99.90
5196;DHT22;2617;51.006;12.436;2022-11-10T05:03:10;7.20;99.90
5196;DHT22;2617;51.006;12.436;2022-11-10T05:08:12;7.20;99.90
5196;DHT22;2617;51.006;12.436;2022-11-10T05:13:14;7.20;99.90
5196;DHT22;2617;51.006;12.436;2022-11-10T05:18:16;7.20;99.90
5196;DHT22;2617;51.006;12.436;2022-11-10T05:23:18;7.20;99.90
5196;DHT22;2617;51.006;12.436;2022-11-10T05:28:25;7.20;99.90
5196;DHT22;2617;51.006;12.436;2022-11-10T05:33:27;7.20;99.90
5196;DHT22;2617;51.006;12.436;2022-11-10T05:38:29;7.20;99.90
5196;DHT22;2617;51.006;12.436;2022-11-10T05:43:30;7.20;99.90
5196;DHT22;2617;51.006;12.436;2022-11-10T05:48:32;7.20;99.90
5196;DHT22;2617;51.006;12.436;2022-11-10T05:53:34;7.20;99.90
5196;DHT22;2617;51.006;12.436;2022-11-10T05:58:36;7.20;99.90
5196;DHT22;2617;51.006;12.436;2022-11-10T06:03:37;7.20;99.90
5196;DHT22;2617;51.006;12.436;2022-11-10T06:08:39;7.20;99.90
5196;DHT22;2617;51.006;12.436;2022-11-10T06:13:41;7.20;99.90
5196;DHT22;2617;51.006;12.436;2022-11-10T06:18:43;7.10;99.90
5196;DHT22;2617;51.006;12.436;2022-11-10T06:23:45;7.10;99.90
5196;DHT22;2617;51.006;12.436;2022-11-10T06:28:46;7.10;99.90
5196;DHT22;2617;51.006;12.436;2022-11-10T06:33:48;7.10;99.90
5196;DHT22;2617;51.006;12.436;2022-11-10T06:38:50;7.10;99.90
5196;DHT22;2617;51.006;12.436;2022-11-10T06:43:52;7.10;99.90
5196;DHT22;2617;51.006;12.436;2022-11-10T06:48:54;7.10;99.90
5196;DHT22;2617;51.006;12.436;2022-11-10T06:53:55;7.30;99.90
5196;DHT22;2617;51.006;12.436;2022-11-10T06:58:57;7.30;99.90
5196;DHT22;2617;51.006;12.436;2022-11-10T07:03:59;7.40;99.90
5196;DHT22;2617;51.006;12.436;2022-11-10T07:09:01;7.40;99.90
5196;DHT22;2617;51.006;12.436;2022-11-10T07:14:02;7.40;99.90
5196;DHT22;2617;51.006;12.436;2022-11-10T07:19:04;7.50;99.90
5196;DHT22;2617;51.006;12.436;2022-11-10T07:24:06;7.60;99.90
5196;DHT22;2617;51.006;12.436;2022-11-10T07:29:08;7.70;99.90
5196;DHT22;2617;51.006;12.436;2022-11-10T07:34:11;7.90;99.90
5196;DHT22;2617;51.006;12.436;2022-11-10T07:39:13;7.90;99.90
5196;DHT22;2617;51.006;12.436;2022-11-10T07:44:14;8.10;99.90
5196;DHT22;2617;51.006;12.436;2022-11-10T07:49:16;8.20;99.90
5196;DHT22;2617;51.006;12.436;2022-11-10T07:54:18;8.40;99.90
5196;DHT22;2617;51.006;12.436;2022-11-10T07:59:20;8.50;99.90
5196;DHT22;2617;51.006;12.436;2022-11-10T08:04:22;8.70;99.90
5196;DHT22;2617;51.006;12.436;2022-11-10T08:09:23;8.80;99.90
5196;DHT22;2617;51.006;12.436;2022-11-10T08:14:25;9.00;99.90
5196;DHT22;2617;51.006;12.436;2022-11-10T08:19:27;9.20;99.90
5196;DHT22;2617;51.006;12.436;2022-11-10T08:24:28;9.30;99.90
5196;DHT22;2617;51.006;12.436;2022-11-10T08:29:30;9.50;99.90
5196;DHT22;2617;51.006;12.436;2022-11-10T08:34:33;9.90;99.90
5196;DHT22;2617;51.006;12.436;2022-11-10T08:39:34;9.90;99.90
5196;DHT22;2617;51.006;12.436;2022-11-10T08:44:36;10.20;99.90
5196;DHT22;2617;51.006;12.436;2022-11-10T08:49:38;10.40;99.90
5196;DHT22;2617;51.006;12.436;2022-11-10T08:54:39;10.70;99.90
5196;DHT22;2617;51.006;12.436;2022-11-10T08:59:42;11.00;99.90
5196;DHT22;2617;51.006;12.436;2022-11-10T09:04:44;11.00;99.90
5196;DHT22;2617;51.006;12.436;2022-11-10T09:09:45;10.90;99.90
5196;DHT22;2617;51.006;12.436;2022-11-10T09:14:47;10.90;99.90
5196;DHT22;2617;51.006;12.436;2022-11-10T09:19:49;10.90;99.90
5196;DHT22;2617;51.006;12.436;2022-11-10T09:24:51;11.10;99.90
5196;DHT22;2617;51.006;12.436;2022-11-10T09:29:52;11.40;99.90
5196;DHT22;2617;51.006;12.436;2022-11-10T09:34:54;11.70;99.90
5196;DHT22;2617;51.006;12.436;2022-11-10T09:39:57;11.70;99.90
5196;DHT22;2617;51.006;12.436;2022-11-10T09:45:02;11.70;99.90
5196;DHT22;2617;51.006;12.436;2022-11-10T09:50:01;11.90;99.90
5196;DHT22;2617;51.006;12.436;2022-11-10T10:00:21;12.40;99.90
5196;DHT22;2617;51.006;12.436;2022-11-10T10:05:39;12.50;99.90
5196;DHT22;2617;51.006;12.436;2022-11-10T10:10:52;12.50;99.90
5196;DHT22;2617;51.006;12.436;2022-11-10T10:16:15;12.70;99.90
5196;DHT22;2617;51.006;12.436;2022-11-10T10:21:37;12.90;99.90
5196;DHT22;2617;51.006;12.436;2022-11-10T10:26:37;13.00;99.90
5196;DHT22;2617;51.006;12.436;2022-11-10T10:31:52;13.10;99.90
5196;DHT22;2617;51.006;12.436;2022-11-10T10:36:54;13.20;99.90
5196;DHT22;2617;51.006;12.436;2022-11-10T10:41:56;13.30;99.90
5196;DHT22;2617;51.006;12.436;2022-11-10T10:46:59;13.40;99.90
5196;DHT22;2617;51.006;12.436;2022-11-10T10:52:02;13.60;99.90
5196;DHT22;2617;51.006;12.436;2022-11-10T11:02:27;14.00;99.90
5196;DHT22;2617;51.006;12.436;2022-11-10T11:07:27;14.00;99.90
5196;DHT22;2617;51.006;12.436;2022-11-10T11:12:29;14.30;99.90
5196;DHT22;2617;51.006;12.436;2022-11-10T11:17:32;14.70;99.90
5196;DHT22;2617;51.006;12.436;2022-11-10T11:22:55;14.60;99.90
5196;DHT22;2617;51.006;12.436;2022-11-10T11:28:06;14.50;99.90
5196;DHT22;2617;51.006;12.436;2022-11-10T11:33:18;14.30;99.90
5196;DHT22;2617;51.006;12.436;2022-11-10T11:38:23;14.30;99.90
5196;DHT22;2617;51.006;12.436;2022-11-10T11:43:49;14.30;99.90
5196;DHT22;2617;51.006;12.436;2022-11-10T11:48:49;14.40;99.90
5196;DHT22;2617;51.006;12.436;2022-11-10T11:54:12;14.60;99.90
5196;DHT22;2617;51.006;12.436;2022-11-10T11:59:19;14.80;99.90
5196;DHT22;2617;51.006;12.436;2022-11-10T12:09:43;14.40;99.90
5196;DHT22;2617;51.006;12.436;2022-11-10T12:20:18;14.80;99.90
5196;DHT22;2617;51.006;12.436;2022-11-10T12:25:22;14.70;99.90
5196;DHT22;2617;51.006;12.436;2022-11-10T12:30:20;14.40;99.90
5196;DHT22;2617;51.006;12.436;2022-11-10T12:35:25;14.20;99.90
5196;DHT22;2617;51.006;12.436;2022-11-10T12:40:35;13.90;99.90
5196;DHT22;2617;51.006;12.436;2022-11-10T12:45:38;13.90;99.90
5196;DHT22;2617;51.006;12.436;2022-11-10T12:56:05;14.00;99.90
5196;DHT22;2617;51.006;12.436;2022-11-10T13:01:11;14.20;99.90
5196;DHT22;2617;51.006;12.436;2022-11-10T13:11:26;14.30;99.90
5196;DHT22;2617;51.006;12.436;2022-11-10T13:16:48;14.30;99.90
5196;DHT22;2617;51.006;12.436;2022-11-10T13:27:12;13.90;99.90
5196;DHT22;2617;51.006;12.436;2022-11-10T13:32:29;13.90;99.90
5196;DHT22;2617;51.006;12.436;2022-11-10T13:37:46;13.80;99.90
5196;DHT22;2617;51.006;12.436;2022-11-10T13:43:21;14.20;99.90
5196;DHT22;2617;51.006;12.436;2022-11-10T13:48:29;14.20;99.90
5196;DHT22;2617;51.006;12.436;2022-11-10T13:58:37;14.60;99.90
5196;DHT22;2617;51.006;12.436;2022-11-10T14:03:53;14.50;99.90
5196;DHT22;2617;51.006;12.436;2022-11-10T14:09:03;14.40;99.90
5196;DHT22;2617;51.006;12.436;2022-11-10T14:19:19;13.80;99.90
5196;DHT22;2617;51.006;12.436;2022-11-10T14:24:26;13.50;99.90
5196;DHT22;2617;51.006;12.436;2022-11-10T14:29:30;13.30;99.90
5196;DHT22;2617;51.006;12.436;2022-11-10T14:34:31;13.20;99.90
5196;DHT22;2617;51.006;12.436;2022-11-10T14:39:33;13.10;99.90
5196;DHT22;2617;51.006;12.436;2022-11-10T14:44:34;13.00;99.90
5196;DHT22;2617;51.006;12.436;2022-11-10T14:49:36;12.80;99.90
5196;DHT22;2617;51.006;12.436;2022-11-10T14:54:41;12.60;99.90
5196;DHT22;2617;51.006;12.436;2022-11-10T14:59:40;12.20;99.90
5196;DHT22;2617;51.006;12.436;2022-11-10T15:04:42;12.20;99.90
5196;DHT22;2617;51.006;12.436;2022-11-10T15:14:56;11.90;99.90
5196;DHT22;2617;51.006;12.436;2022-11-10T15:19:57;11.60;99.90
5196;DHT22;2617;51.006;12.436;2022-11-10T15:24:59;11.40;99.90
5196;DHT22;2617;51.006;12.436;2022-11-10T15:30:01;11.20;99.90
5196;DHT22;2617;51.006;12.436;2022-11-10T15:35:08;11.10;99.90
5196;DHT22;2617;51.006;12.436;2022-11-10T15:45:23;10.80;99.90
5196;DHT22;2617;51.006;12.436;2022-11-10T15:50:25;10.60;99.90
5196;DHT22;2617;51.006;12.436;2022-11-10T15:55:28;10.30;99.90
5196;DHT22;2617;51.006;12.436;2022-11-10T16:00:29;10.30;99.90
5196;DHT22;2617;51.006;12.436;2022-11-10T16:05:31;10.20;99.90
5196;DHT22;2617;51.006;12.436;2022-11-10T16:10:33;10.00;99.90
5196;DHT22;2617;51.006;12.436;2022-11-10T16:15:35;9.90;99.90
5196;DHT22;2617;51.006;12.436;2022-11-10T16:20:36;9.70;99.90
5196;DHT22;2617;51.006;12.436;2022-11-10T16:25:38;9.60;99.90
5196;DHT22;2617;51.006;12.436;2022-11-10T16:30:40;9.50;99.90
5196;DHT22;2617;51.006;12.436;2022-11-10T16:35:42;9.40;99.90
5196;DHT22;2617;51.006;12.436;2022-11-10T16:40:46;9.20;99.90
5196;DHT22;2617;51.006;12.436;2022-11-10T16:45:46;9.20;99.90
5196;DHT22;2617;51.006;12.436;2022-11-10T16:50:49;9.10;99.90
5196;DHT22;2617;51.006;12.436;2022-11-10T16:55:50;9.00;99.90
5196;DHT22;2617;51.006;12.436;2022-11-10T17:00:53;9.00;99.90
5196;DHT22;2617;51.006;12.436;2022-11-10T17:05:54;9.00;99.90
5196;DHT22;2617;51.006;12.436;2022-11-10T17:10:56;8.90;99.90
5196;DHT22;2617;51.006;12.436;2022-11-10T17:16:04;8.80;99.90
5196;DHT22;2617;51.006;12.436;2022-11-10T17:21:06;8.70;99.90
5196;DHT22;2617;51.006;12.436;2022-11-10T17:26:09;8.70;99.90
5196;DHT22;2617;51.006;12.436;2022-11-10T17:31:10;8.70;99.90
5196;DHT22;2617;51.006;12.436;2022-11-10T17:36:13;8.60;99.90
5196;DHT22;2617;51.006;12.436;2022-11-10T17:41:14;8.60;99.90
5196;DHT22;2617;51.006;12.436;2022-11-10T17:46:15;8.50;99.90
5196;DHT22;2617;51.006;12.436;2022-11-10T17:51:18;8.40;99.90
5196;DHT22;2617;51.006;12.436;2022-11-10T17:56:19;8.30;99.90
5196;DHT22;2617;51.006;12.436;2022-11-10T18:01:20;8.30;99.90
5196;DHT22;2617;51.006;12.436;2022-11-10T18:06:23;8.20;99.90
5196;DHT22;2617;51.006;12.436;2022-11-10T18:11:25;8.20;99.90
5196;DHT22;2617;51.006;12.436;2022-11-10T18:16:27;8.10;99.90
5196;DHT22;2617;51.006;12.436;2022-11-10T18:21:28;8.00;99.90
5196;DHT22;2617;51.006;12.436;2022-11-10T18:26:30;8.00;99.90
5196;DHT22;2617;51.006;12.436;2022-11-10T18:31:32;7.90;99.90
5196;DHT22;2617;51.006;12.436;2022-11-10T18:36:33;7.90;99.90
5196;DHT22;2617;51.006;12.436;2022-11-10T18:41:35;7.90;99.90
5196;DHT22;2617;51.006;12.436;2022-11-10T18:46:49;7.80;99.90
5196;DHT22;2617;51.006;12.436;2022-11-10T18:51:51;7.80;99.90
5196;DHT22;2617;51.006;12.436;2022-11-10T18:56:53;7.80;99.90
5196;DHT22;2617;51.006;12.436;2022-11-10T19:01:55;7.80;99.90
5196;DHT22;2617;51.006;12.436;2022-11-10T19:06:56;7.80;99.90
5196;DHT22;2617;51.006;12.436;2022-11-10T19:11:58;7.70;99.90
5196;DHT22;2617;51.006;12.436;2022-11-10T19:17:00;7.70;99.90
5196;DHT22;2617;51.006;12.436;2022-11-10T19:22:02;7.70;99.90
5196;DHT22;2617;51.006;12.436;2022-11-10T19:27:04;7.70;99.90
5196;DHT22;2617;51.006;12.436;2022-11-10T19:32:06;7.60;99.90
5196;DHT22;2617;51.006;12.436;2022-11-10T19:37:09;7.70;99.90
5196;DHT22;2617;51.006;12.436;2022-11-10T19:42:10;7.70;99.90
5196;DHT22;2617;51.006;12.436;2022-11-10T19:47:12;7.70;99.90
5196;DHT22;2617;51.006;12.436;2022-11-10T19:52:14;7.70;99.90
5196;DHT22;2617;51.006;12.436;2022-11-10T19:57:15;7.70;99.90
5196;DHT22;2617;51.006;12.436;2022-11-10T20:02:18;7.80;99.90
5196;DHT22;2617;51.006;12.436;2022-11-10T20:07:20;7.80;99.90
5196;DHT22;2617;51.006;12.436;2022-11-10T20:12:27;7.80;99.90
5196;DHT22;2617;51.006;12.436;2022-11-10T20:17:29;7.80;99.90
5196;DHT22;2617;51.006;12.436;2022-11-10T20:22:31;7.80;99.90
5196;DHT22;2617;51.006;12.436;2022-11-10T20:27:32;7.80;99.90
5196;DHT22;2617;51.006;12.436;2022-11-10T20:32:34;7.70;99.90
5196;DHT22;2617;51.006;12.436;2022-11-10T20:37:36;7.70;99.90
5196;DHT22;2617;51.006;12.436;2022-11-10T20:42:38;7.60;99.90
5196;DHT22;2617;51.006;12.436;2022-11-10T20:47:40;7.70;99.90
5196;DHT22;2617;51.006;12.436;2022-11-10T20:52:42;7.70;99.90
5196;DHT22;2617;51.006;12.436;2022-11-10T20:57:44;7.70;99.90
5196;DHT22;2617;51.006;12.436;2022-11-10T21:02:46;7.70;99.90
5196;DHT22;2617;51.006;12.436;2022-11-10T21:07:48;7.70;99.90
5196;DHT22;2617;51.006;12.436;2022-11-10T21:12:49;7.60;99.90
5196;DHT22;2617;51.006;12.436;2022-11-10T21:17:51;7.60;99.90
5196;DHT22;2617;51.006;12.436;2022-11-10T21:22:53;7.60;99.90
5196;DHT22;2617;51.006;12.436;2022-11-10T21:27:55;7.60;99.90
5196;DHT22;2617;51.006;12.436;2022-11-10T21:32:57;7.60;99.90
5196;DHT22;2617;51.006;12.436;2022-11-10T21:37:58;7.50;99.90
5196;DHT22;2617;51.006;12.436;2022-11-10T21:43:00;7.50;99.90
5196;DHT22;2617;51.006;12.436;2022-11-10T21:48:02;7.50;99.90
5196;DHT22;2617;51.006;12.436;2022-11-10T21:53:05;7.40;99.90
5196;DHT22;2617;51.006;12.436;2022-11-10T21:58:06;7.40;99.90
5196;DHT22;2617;51.006;12.436;2022-11-10T22:03:09;7.30;99.90
5196;DHT22;2617;51.006;12.436;2022-11-10T22:08:11;7.30;99.90
5196;DHT22;2617;51.006;12.436;2022-11-10T22:13:16;7.30;99.90
5196;DHT22;2617;51.006;12.436;2022-11-10T22:18:22;7.30;99.90
5196;DHT22;2617;51.006;12.436;2022-11-10T22:23:30;7.30;99.90
5196;DHT22;2617;51.006;12.436;2022-11-10T22:28:37;7.30;99.90
5196;DHT22;2617;51.006;12.436;2022-11-10T22:33:39;7.20;99.90
5196;DHT22;2617;51.006;12.436;2022-11-10T22:38:41;7.20;99.90
5196;DHT22;2617;51.006;12.436;2022-11-10T22:43:42;7.10;99.90
5196;DHT22;2617;51.006;12.436;2022-11-10T22:48:50;7.10;99.90
5196;DHT22;2617;51.006;12.436;2022-11-10T22:53:51;7.10;99.90
5196;DHT22;2617;51.006;12.436;2022-11-10T22:58:53;7.10;99.90
5196;DHT22;2617;51.006;12.436;2022-11-10T23:03:56;7.20;99.90
5196;DHT22;2617;51.006;12.436;2022-11-10T23:08:59;7.20;99.90
5196;DHT22;2617;51.006;12.436;2022-11-10T23:14:00;7.20;99.90
5196;DHT22;2617;51.006;12.436;2022-11-10T23:19:02;7.20;99.90
5196;DHT22;2617;51.006;12.436;2022-11-10T23:24:04;7.20;99.90
5196;DHT22;2617;51.006;12.436;2022-11-10T23:29:06;7.20;99.90
5196;DHT22;2617;51.006;12.436;2022-11-10T23:34:08;7.20;99.90
5196;DHT22;2617;51.006;12.436;2022-11-10T23:39:09;7.20;99.90
5196;DHT22;2617;51.006;12.436;2022-11-10T23:44:11;7.20;99.90
5196;DHT22;2617;51.006;12.436;2022-11-10T23:49:13;7.20;99.90
5196;DHT22;2617;51.006;12.436;2022-11-10T23:54:15;7.20;99.90
5196;DHT22;2617;51.006;12.436;2022-11-10T23:59:16;7.20;99.90
